sensor_id;sensor_type;location;lat;lon;timestamp;P1;durP1;ratioP1;P2;durP2;ratioP2
52946;SDS011;68773;40.400;17.260;2023-06-10T00:01:10;9.13;;;5.40;;
52946;SDS011;68773;40.400;17.260;2023-06-10T00:03:36;9.38;;;5.70;;
52946;SDS011;68773;40.400;17.260;2023-06-10T00:06:02;14.00;;;5.85;;
52946;SDS011;68773;40.400;17.260;2023-06-10T00:08:28;10.48;;;5.20;;
52946;SDS011;68773;40.400;17.260;2023-06-10T00:10:56;12.45;;;5.45;;
52946;SDS011;68773;40.400;17.260;2023-06-10T00:13:22;9.43;;;5.30;;
52946;SDS011;68773;40.400;17.260;2023-06-10T00:15:49;7.63;;;4.70;;
52946;SDS011;68773;40.400;17.260;2023-06-10T00:18:15;9.38;;;5.20;;
52946;SDS011;68773;40.400;17.260;2023-06-10T00:20:42;10.77;;;5.05;;
52946;SDS011;68773;40.400;17.260;2023-06-10T00:23:08;9.65;;;4.60;;
52946;SDS011;68773;40.400;17.260;2023-06-10T00:25:34;9.48;;;4.43;;
52946;SDS011;68773;40.400;17.260;2023-06-10T00:28:00;8.70;;;4.28;;
52946;SDS011;68773;40.400;17.260;2023-06-10T00:30:27;13.60;;;4.60;;
52946;SDS011;68773;40.400;17.260;2023-06-10T00:32:53;7.22;;;3.92;;
52946;SDS011;68773;40.400;17.260;2023-06-10T00:35:19;8.63;;;4.45;;
52946;SDS011;68773;40.400;17.260;2023-06-10T00:37:45;8.27;;;4.45;;
52946;SDS011;68773;40.400;17.260;2023-06-10T00:40:11;8.00;;;4.38;;
52946;SDS011;68773;40.400;17.260;2023-06-10T00:42:37;6.97;;;4.00;;
52946;SDS011;68773;40.400;17.260;2023-06-10T00:45:04;8.05;;;4.05;;
52946;SDS011;68773;40.400;17.260;2023-06-10T00:47:30;7.05;;;3.85;;
52946;SDS011;68773;40.400;17.260;2023-06-10T00:49:57;7.80;;;3.90;;
52946;SDS011;68773;40.400;17.260;2023-06-10T00:52:24;5.53;;;3.85;;
52946;SDS011;68773;40.400;17.260;2023-06-10T00:54:52;6.40;;;3.40;;
52946;SDS011;68773;40.400;17.260;2023-06-10T00:57:19;6.28;;;3.70;;
52946;SDS011;68773;40.400;17.260;2023-06-10T00:59:47;6.95;;;3.67;;
52946;SDS011;68773;40.400;17.260;2023-06-10T01:02:13;7.45;;;4.60;;
52946;SDS011;68773;40.400;17.260;2023-06-10T01:04:39;7.32;;;3.90;;
52946;SDS011;68773;40.400;17.260;2023-06-10T01:09:40;6.43;;;3.80;;
52946;SDS011;68773;40.400;17.260;2023-06-10T01:14:34;7.95;;;4.78;;
52946;SDS011;68773;40.400;17.260;2023-06-10T01:17:01;8.77;;;4.03;;
52946;SDS011;68773;40.400;17.260;2023-06-10T01:19:28;8.55;;;4.82;;
52946;SDS011;68773;40.400;17.260;2023-06-10T01:21:56;7.60;;;4.60;;
52946;SDS011;68773;40.400;17.260;2023-06-10T01:24:25;8.65;;;4.47;;
52946;SDS011;68773;40.400;17.260;2023-06-10T01:26:51;7.43;;;4.68;;
52946;SDS011;68773;40.400;17.260;2023-06-10T01:29:31;7.20;;;4.10;;
52946;SDS011;68773;40.400;17.260;2023-06-10T01:32:03;5.03;;;3.90;;
52946;SDS011;68773;40.400;17.260;2023-06-10T01:34:30;6.88;;;4.57;;
52946;SDS011;68773;40.400;17.260;2023-06-10T01:36:57;7.90;;;4.93;;
52946;SDS011;68773;40.400;17.260;2023-06-10T01:39:24;6.68;;;4.70;;
52946;SDS011;68773;40.400;17.260;2023-06-10T01:41:51;8.10;;;4.80;;
52946;SDS011;68773;40.400;17.260;2023-06-10T01:44:21;6.15;;;4.03;;
52946;SDS011;68773;40.400;17.260;2023-06-10T01:46:47;8.77;;;4.43;;
52946;SDS011;68773;40.400;17.260;2023-06-10T01:49:13;7.32;;;4.32;;
52946;SDS011;68773;40.400;17.260;2023-06-10T01:51:39;7.35;;;4.35;;
52946;SDS011;68773;40.400;17.260;2023-06-10T01:54:06;12.50;;;4.63;;
52946;SDS011;68773;40.400;17.260;2023-06-10T01:56:32;6.90;;;4.55;;
52946;SDS011;68773;40.400;17.260;2023-06-10T01:58:58;9.30;;;4.35;;
52946;SDS011;68773;40.400;17.260;2023-06-10T02:01:28;5.75;;;4.22;;
52946;SDS011;68773;40.400;17.260;2023-06-10T02:03:54;8.18;;;4.35;;
52946;SDS011;68773;40.400;17.260;2023-06-10T02:06:20;6.07;;;4.03;;
52946;SDS011;68773;40.400;17.260;2023-06-10T02:08:46;7.97;;;4.20;;
52946;SDS011;68773;40.400;17.260;2023-06-10T02:11:12;7.82;;;4.60;;
52946;SDS011;68773;40.400;17.260;2023-06-10T02:13:39;8.60;;;4.47;;
52946;SDS011;68773;40.400;17.260;2023-06-10T02:16:05;9.40;;;5.25;;
52946;SDS011;68773;40.400;17.260;2023-06-10T02:18:31;7.43;;;4.47;;
52946;SDS011;68773;40.400;17.260;2023-06-10T02:20:57;8.48;;;4.63;;
52946;SDS011;68773;40.400;17.260;2023-06-10T02:23:23;9.02;;;5.18;;
52946;SDS011;68773;40.400;17.260;2023-06-10T02:25:49;11.55;;;5.45;;
52946;SDS011;68773;40.400;17.260;2023-06-10T02:28:15;8.13;;;5.00;;
52946;SDS011;68773;40.400;17.260;2023-06-10T02:30:42;11.43;;;5.20;;
52946;SDS011;68773;40.400;17.260;2023-06-10T02:33:08;9.25;;;5.60;;
52946;SDS011;68773;40.400;17.260;2023-06-10T02:35:38;10.55;;;5.13;;
52946;SDS011;68773;40.400;17.260;2023-06-10T02:38:04;9.50;;;4.65;;
52946;SDS011;68773;40.400;17.260;2023-06-10T02:40:30;9.23;;;4.40;;
52946;SDS011;68773;40.400;17.260;2023-06-10T02:42:57;8.65;;;4.30;;
52946;SDS011;68773;40.400;17.260;2023-06-10T02:45:23;5.93;;;3.90;;
52946;SDS011;68773;40.400;17.260;2023-06-10T02:47:49;6.55;;;4.45;;
52946;SDS011;68773;40.400;17.260;2023-06-10T02:50:16;7.10;;;4.43;;
52946;SDS011;68773;40.400;17.260;2023-06-10T02:52:42;16.20;;;4.85;;
52946;SDS011;68773;40.400;17.260;2023-06-10T02:55:08;9.68;;;4.85;;
52946;SDS011;68773;40.400;17.260;2023-06-10T02:57:34;8.52;;;5.15;;
52946;SDS011;68773;40.400;17.260;2023-06-10T03:00:00;9.40;;;5.22;;
52946;SDS011;68773;40.400;17.260;2023-06-10T03:02:29;11.30;;;5.53;;
52946;SDS011;68773;40.400;17.260;2023-06-10T03:04:56;10.95;;;5.45;;
52946;SDS011;68773;40.400;17.260;2023-06-10T03:07:23;8.77;;;4.60;;
52946;SDS011;68773;40.400;17.260;2023-06-10T03:09:49;9.00;;;4.65;;
52946;SDS011;68773;40.400;17.260;2023-06-10T03:12:15;7.53;;;4.32;;
52946;SDS011;68773;40.400;17.260;2023-06-10T03:14:42;8.85;;;4.97;;
52946;SDS011;68773;40.400;17.260;2023-06-10T03:17:08;6.15;;;4.20;;
52946;SDS011;68773;40.400;17.260;2023-06-10T03:19:34;7.75;;;4.68;;
52946;SDS011;68773;40.400;17.260;2023-06-10T03:22:12;7.10;;;4.70;;
52946;SDS011;68773;40.400;17.260;2023-06-10T03:24:38;7.78;;;4.70;;
52946;SDS011;68773;40.400;17.260;2023-06-10T03:27:09;8.32;;;5.32;;
52946;SDS011;68773;40.400;17.260;2023-06-10T03:29:36;7.32;;;4.90;;
52946;SDS011;68773;40.400;17.260;2023-06-10T03:32:02;8.80;;;4.90;;
52946;SDS011;68773;40.400;17.260;2023-06-10T03:34:28;8.55;;;4.65;;
52946;SDS011;68773;40.400;17.260;2023-06-10T03:36:55;9.43;;;5.63;;
52946;SDS011;68773;40.400;17.260;2023-06-10T03:39:21;8.85;;;5.43;;
52946;SDS011;68773;40.400;17.260;2023-06-10T03:41:48;8.60;;;5.32;;
52946;SDS011;68773;40.400;17.260;2023-06-10T03:44:14;7.80;;;5.70;;
52946;SDS011;68773;40.400;17.260;2023-06-10T03:46:40;9.55;;;5.90;;
52946;SDS011;68773;40.400;17.260;2023-06-10T03:49:07;8.90;;;5.47;;
52946;SDS011;68773;40.400;17.260;2023-06-10T03:51:35;11.75;;;5.65;;
52946;SDS011;68773;40.400;17.260;2023-06-10T03:54:01;11.55;;;5.63;;
52946;SDS011;68773;40.400;17.260;2023-06-10T03:56:27;8.20;;;5.70;;
52946;SDS011;68773;40.400;17.260;2023-06-10T03:58:54;9.65;;;5.43;;
52946;SDS011;68773;40.400;17.260;2023-06-10T04:01:20;9.20;;;5.07;;
52946;SDS011;68773;40.400;17.260;2023-06-10T04:03:48;13.13;;;5.82;;
52946;SDS011;68773;40.400;17.260;2023-06-10T04:06:16;21.02;;;10.13;;
52946;SDS011;68773;40.400;17.260;2023-06-10T04:08:42;27.73;;;12.68;;
52946;SDS011;68773;40.400;17.260;2023-06-10T04:11:08;32.97;;;13.45;;
52946;SDS011;68773;40.400;17.260;2023-06-10T04:13:34;32.45;;;12.77;;
52946;SDS011;68773;40.400;17.260;2023-06-10T04:16:01;27.35;;;11.90;;
52946;SDS011;68773;40.400;17.260;2023-06-10T04:18:28;23.35;;;10.27;;
52946;SDS011;68773;40.400;17.260;2023-06-10T04:20:54;27.02;;;11.68;;
52946;SDS011;68773;40.400;17.260;2023-06-10T04:23:20;19.25;;;8.50;;
52946;SDS011;68773;40.400;17.260;2023-06-10T04:25:46;15.82;;;8.43;;
52946;SDS011;68773;40.400;17.260;2023-06-10T04:28:12;19.10;;;8.75;;
52946;SDS011;68773;40.400;17.260;2023-06-10T04:30:39;15.55;;;8.30;;
52946;SDS011;68773;40.400;17.260;2023-06-10T04:33:06;17.23;;;8.50;;
52946;SDS011;68773;40.400;17.260;2023-06-10T04:35:34;12.95;;;7.50;;
52946;SDS011;68773;40.400;17.260;2023-06-10T04:38:00;10.02;;;5.75;;
52946;SDS011;68773;40.400;17.260;2023-06-10T04:40:28;11.43;;;6.35;;
52946;SDS011;68773;40.400;17.260;2023-06-10T04:42:54;9.23;;;5.43;;
52946;SDS011;68773;40.400;17.260;2023-06-10T04:45:20;10.88;;;4.95;;
52946;SDS011;68773;40.400;17.260;2023-06-10T04:47:47;10.15;;;5.15;;
52946;SDS011;68773;40.400;17.260;2023-06-10T04:50:13;8.68;;;4.63;;
52946;SDS011;68773;40.400;17.260;2023-06-10T04:52:39;8.15;;;4.28;;
52946;SDS011;68773;40.400;17.260;2023-06-10T04:55:06;11.02;;;4.18;;
52946;SDS011;68773;40.400;17.260;2023-06-10T04:57:33;10.18;;;4.30;;
52946;SDS011;68773;40.400;17.260;2023-06-10T04:59:59;6.72;;;3.70;;
52946;SDS011;68773;40.400;17.260;2023-06-10T05:02:25;7.78;;;4.22;;
52946;SDS011;68773;40.400;17.260;2023-06-10T05:04:51;9.18;;;3.97;;
52946;SDS011;68773;40.400;17.260;2023-06-10T05:07:18;15.68;;;4.03;;
52946;SDS011;68773;40.400;17.260;2023-06-10T05:09:44;8.75;;;3.90;;
52946;SDS011;68773;40.400;17.260;2023-06-10T05:12:10;8.75;;;4.13;;
52946;SDS011;68773;40.400;17.260;2023-06-10T05:14:36;7.43;;;4.13;;
52946;SDS011;68773;40.400;17.260;2023-06-10T05:17:03;13.73;;;4.90;;
52946;SDS011;68773;40.400;17.260;2023-06-10T05:19:31;12.63;;;5.10;;
52946;SDS011;68773;40.400;17.260;2023-06-10T05:21:57;13.00;;;5.35;;
52946;SDS011;68773;40.400;17.260;2023-06-10T05:24:23;9.30;;;4.88;;
52946;SDS011;68773;40.400;17.260;2023-06-10T05:26:49;7.93;;;4.70;;
52946;SDS011;68773;40.400;17.260;2023-06-10T05:29:15;9.80;;;4.88;;
52946;SDS011;68773;40.400;17.260;2023-06-10T05:31:41;9.77;;;5.30;;
52946;SDS011;68773;40.400;17.260;2023-06-10T05:34:08;11.70;;;6.32;;
52946;SDS011;68773;40.400;17.260;2023-06-10T05:36:34;15.63;;;8.15;;
52946;SDS011;68773;40.400;17.260;2023-06-10T05:39:00;14.32;;;7.88;;
52946;SDS011;68773;40.400;17.260;2023-06-10T05:41:26;19.55;;;9.25;;
52946;SDS011;68773;40.400;17.260;2023-06-10T05:43:52;17.77;;;9.43;;
52946;SDS011;68773;40.400;17.260;2023-06-10T05:46:18;14.82;;;9.82;;
52946;SDS011;68773;40.400;17.260;2023-06-10T05:48:45;15.40;;;8.77;;
52946;SDS011;68773;40.400;17.260;2023-06-10T05:51:11;19.65;;;9.63;;
52946;SDS011;68773;40.400;17.260;2023-06-10T05:53:37;17.10;;;8.82;;
52946;SDS011;68773;40.400;17.260;2023-06-10T05:56:03;15.48;;;6.88;;
52946;SDS011;68773;40.400;17.260;2023-06-10T05:58:30;14.02;;;6.35;;
52946;SDS011;68773;40.400;17.260;2023-06-10T06:00:56;13.55;;;6.20;;
52946;SDS011;68773;40.400;17.260;2023-06-10T06:03:22;15.30;;;6.00;;
52946;SDS011;68773;40.400;17.260;2023-06-10T06:05:48;15.32;;;6.55;;
52946;SDS011;68773;40.400;17.260;2023-06-10T06:08:14;17.58;;;8.85;;
52946;SDS011;68773;40.400;17.260;2023-06-10T06:10:43;17.27;;;8.93;;
52946;SDS011;68773;40.400;17.260;2023-06-10T06:13:09;18.80;;;8.75;;
52946;SDS011;68773;40.400;17.260;2023-06-10T06:15:35;17.70;;;8.98;;
52946;SDS011;68773;40.400;17.260;2023-06-10T06:18:01;18.13;;;8.20;;
52946;SDS011;68773;40.400;17.260;2023-06-10T06:20:27;13.18;;;6.85;;
52946;SDS011;68773;40.400;17.260;2023-06-10T06:22:54;7.65;;;5.07;;
52946;SDS011;68773;40.400;17.260;2023-06-10T06:25:20;8.77;;;5.05;;
52946;SDS011;68773;40.400;17.260;2023-06-10T06:27:46;8.25;;;4.70;;
52946;SDS011;68773;40.400;17.260;2023-06-10T06:30:12;10.65;;;4.95;;
52946;SDS011;68773;40.400;17.260;2023-06-10T06:32:38;8.13;;;4.38;;
52946;SDS011;68773;40.400;17.260;2023-06-10T06:35:04;6.18;;;4.20;;
52946;SDS011;68773;40.400;17.260;2023-06-10T06:37:33;8.88;;;4.10;;
52946;SDS011;68773;40.400;17.260;2023-06-10T06:39:59;11.23;;;5.60;;
52946;SDS011;68773;40.400;17.260;2023-06-10T06:42:25;12.13;;;4.80;;
52946;SDS011;68773;40.400;17.260;2023-06-10T06:44:51;8.63;;;4.40;;
52946;SDS011;68773;40.400;17.260;2023-06-10T06:47:18;10.15;;;4.85;;
52946;SDS011;68773;40.400;17.260;2023-06-10T06:49:47;10.85;;;4.43;;
52946;SDS011;68773;40.400;17.260;2023-06-10T06:52:17;5.88;;;3.17;;
52946;SDS011;68773;40.400;17.260;2023-06-10T06:54:43;7.75;;;3.53;;
52946;SDS011;68773;40.400;17.260;2023-06-10T06:57:10;7.43;;;3.70;;
52946;SDS011;68773;40.400;17.260;2023-06-10T06:59:36;7.80;;;3.83;;
52946;SDS011;68773;40.400;17.260;2023-06-10T07:02:02;9.00;;;3.90;;
52946;SDS011;68773;40.400;17.260;2023-06-10T07:04:28;7.65;;;3.67;;
52946;SDS011;68773;40.400;17.260;2023-06-10T07:06:55;7.20;;;3.88;;
52946;SDS011;68773;40.400;17.260;2023-06-10T07:09:21;7.75;;;3.72;;
52946;SDS011;68773;40.400;17.260;2023-06-10T07:11:47;6.63;;;3.22;;
52946;SDS011;68773;40.400;17.260;2023-06-10T07:14:13;5.25;;;3.67;;
52946;SDS011;68773;40.400;17.260;2023-06-10T07:16:39;7.38;;;3.90;;
52946;SDS011;68773;40.400;17.260;2023-06-10T07:19:05;9.20;;;3.80;;
52946;SDS011;68773;40.400;17.260;2023-06-10T07:21:31;7.82;;;3.17;;
52946;SDS011;68773;40.400;17.260;2023-06-10T07:23:58;8.07;;;3.80;;
52946;SDS011;68773;40.400;17.260;2023-06-10T07:26:25;6.68;;;3.40;;
52946;SDS011;68773;40.400;17.260;2023-06-10T07:28:51;9.82;;;3.30;;
52946;SDS011;68773;40.400;17.260;2023-06-10T07:31:17;7.72;;;3.50;;
52946;SDS011;68773;40.400;17.260;2023-06-10T07:33:43;7.93;;;3.40;;
52946;SDS011;68773;40.400;17.260;2023-06-10T07:36:09;7.63;;;3.75;;
52946;SDS011;68773;40.400;17.260;2023-06-10T07:38:35;8.80;;;3.33;;
52946;SDS011;68773;40.400;17.260;2023-06-10T07:41:01;7.55;;;3.35;;
52946;SDS011;68773;40.400;17.260;2023-06-10T07:43:27;6.00;;;3.13;;
52946;SDS011;68773;40.400;17.260;2023-06-10T07:45:53;7.32;;;3.60;;
52946;SDS011;68773;40.400;17.260;2023-06-10T07:48:20;6.85;;;3.67;;
52946;SDS011;68773;40.400;17.260;2023-06-10T07:50:46;8.10;;;3.40;;
52946;SDS011;68773;40.400;17.260;2023-06-10T07:53:12;5.00;;;3.50;;
52946;SDS011;68773;40.400;17.260;2023-06-10T07:55:38;6.65;;;3.50;;
52946;SDS011;68773;40.400;17.260;2023-06-10T07:58:04;6.97;;;3.47;;
52946;SDS011;68773;40.400;17.260;2023-06-10T08:00:30;6.57;;;3.35;;
52946;SDS011;68773;40.400;17.260;2023-06-10T08:02:56;5.45;;;3.35;;
52946;SDS011;68773;40.400;17.260;2023-06-10T08:05:22;7.03;;;3.30;;
52946;SDS011;68773;40.400;17.260;2023-06-10T08:07:48;5.93;;;3.10;;
52946;SDS011;68773;40.400;17.260;2023-06-10T08:10:14;5.78;;;3.80;;
52946;SDS011;68773;40.400;17.260;2023-06-10T08:12:40;6.00;;;3.45;;
52946;SDS011;68773;40.400;17.260;2023-06-10T08:15:07;5.95;;;3.45;;
52946;SDS011;68773;40.400;17.260;2023-06-10T08:17:33;5.15;;;3.65;;
52946;SDS011;68773;40.400;17.260;2023-06-10T08:20:00;7.93;;;3.38;;
52946;SDS011;68773;40.400;17.260;2023-06-10T08:22:26;6.03;;;3.92;;
52946;SDS011;68773;40.400;17.260;2023-06-10T08:24:53;7.10;;;3.78;;
52946;SDS011;68773;40.400;17.260;2023-06-10T08:27:21;5.18;;;3.50;;
52946;SDS011;68773;40.400;17.260;2023-06-10T08:29:47;5.70;;;3.40;;
52946;SDS011;68773;40.400;17.260;2023-06-10T08:32:13;6.57;;;3.85;;
52946;SDS011;68773;40.400;17.260;2023-06-10T08:34:39;9.40;;;4.03;;
52946;SDS011;68773;40.400;17.260;2023-06-10T08:37:06;11.57;;;4.80;;
52946;SDS011;68773;40.400;17.260;2023-06-10T08:39:32;7.03;;;4.10;;
52946;SDS011;68773;40.400;17.260;2023-06-10T08:42:09;7.93;;;4.38;;
52946;SDS011;68773;40.400;17.260;2023-06-10T08:44:37;7.00;;;5.07;;
52946;SDS011;68773;40.400;17.260;2023-06-10T08:47:06;7.60;;;4.38;;
52946;SDS011;68773;40.400;17.260;2023-06-10T08:49:33;7.70;;;4.20;;
52946;SDS011;68773;40.400;17.260;2023-06-10T08:52:02;6.63;;;4.05;;
52946;SDS011;68773;40.400;17.260;2023-06-10T08:54:30;10.30;;;4.38;;
52946;SDS011;68773;40.400;17.260;2023-06-10T08:56:57;8.35;;;4.55;;
52946;SDS011;68773;40.400;17.260;2023-06-10T08:59:25;6.88;;;3.85;;
52946;SDS011;68773;40.400;17.260;2023-06-10T09:01:52;7.57;;;4.03;;
52946;SDS011;68773;40.400;17.260;2023-06-10T09:04:19;8.98;;;4.60;;
52946;SDS011;68773;40.400;17.260;2023-06-10T09:06:45;7.10;;;4.75;;
52946;SDS011;68773;40.400;17.260;2023-06-10T09:09:11;7.55;;;4.75;;
52946;SDS011;68773;40.400;17.260;2023-06-10T09:11:37;10.35;;;4.70;;
52946;SDS011;68773;40.400;17.260;2023-06-10T09:14:04;9.38;;;4.55;;
52946;SDS011;68773;40.400;17.260;2023-06-10T09:16:30;6.20;;;4.10;;
52946;SDS011;68773;40.400;17.260;2023-06-10T09:18:56;6.80;;;4.40;;
52946;SDS011;68773;40.400;17.260;2023-06-10T09:21:24;7.82;;;4.35;;
52946;SDS011;68773;40.400;17.260;2023-06-10T09:23:50;9.88;;;4.90;;
52946;SDS011;68773;40.400;17.260;2023-06-10T09:26:17;8.10;;;4.03;;
52946;SDS011;68773;40.400;17.260;2023-06-10T09:28:52;7.32;;;4.13;;
52946;SDS011;68773;40.400;17.260;2023-06-10T09:31:23;5.35;;;3.70;;
52946;SDS011;68773;40.400;17.260;2023-06-10T09:33:49;7.63;;;3.88;;
52946;SDS011;68773;40.400;17.260;2023-06-10T09:36:24;6.53;;;3.63;;
52946;SDS011;68773;40.400;17.260;2023-06-10T09:38:51;5.85;;;3.72;;
52946;SDS011;68773;40.400;17.260;2023-06-10T09:41:17;4.47;;;3.50;;
52946;SDS011;68773;40.400;17.260;2023-06-10T09:43:43;5.97;;;3.20;;
52946;SDS011;68773;40.400;17.260;2023-06-10T09:46:17;7.50;;;3.83;;
52946;SDS011;68773;40.400;17.260;2023-06-10T09:48:44;5.90;;;3.83;;
52946;SDS011;68773;40.400;17.260;2023-06-10T09:51:11;5.35;;;3.75;;
52946;SDS011;68773;40.400;17.260;2023-06-10T09:53:38;5.15;;;4.22;;
52946;SDS011;68773;40.400;17.260;2023-06-10T09:56:04;8.32;;;4.00;;
52946;SDS011;68773;40.400;17.260;2023-06-10T09:58:34;6.13;;;3.85;;
52946;SDS011;68773;40.400;17.260;2023-06-10T10:01:04;8.55;;;4.00;;
52946;SDS011;68773;40.400;17.260;2023-06-10T10:06:34;8.65;;;4.00;;
52946;SDS011;68773;40.400;17.260;2023-06-10T10:09:01;5.18;;;4.00;;
52946;SDS011;68773;40.400;17.260;2023-06-10T10:11:28;8.85;;;3.78;;
52946;SDS011;68773;40.400;17.260;2023-06-10T10:13:56;6.05;;;3.47;;
52946;SDS011;68773;40.400;17.260;2023-06-10T10:16:24;9.23;;;4.20;;
52946;SDS011;68773;40.400;17.260;2023-06-10T10:18:54;8.38;;;4.00;;
52946;SDS011;68773;40.400;17.260;2023-06-10T10:21:24;6.30;;;3.58;;
52946;SDS011;68773;40.400;17.260;2023-06-10T10:24:02;5.85;;;3.45;;
52946;SDS011;68773;40.400;17.260;2023-06-10T10:26:29;6.35;;;3.97;;
52946;SDS011;68773;40.400;17.260;2023-06-10T10:29:20;5.15;;;3.20;;
52946;SDS011;68773;40.400;17.260;2023-06-10T10:31:42;7.43;;;3.92;;
52946;SDS011;68773;40.400;17.260;2023-06-10T10:34:13;8.68;;;3.58;;
52946;SDS011;68773;40.400;17.260;2023-06-10T10:36:42;6.55;;;2.85;;
52946;SDS011;68773;40.400;17.260;2023-06-10T10:39:08;8.80;;;2.42;;
52946;SDS011;68773;40.400;17.260;2023-06-10T10:41:35;4.32;;;2.13;;
52946;SDS011;68773;40.400;17.260;2023-06-10T10:44:02;2.10;;;1.67;;
52946;SDS011;68773;40.400;17.260;2023-06-10T10:46:39;4.95;;;1.40;;
52946;SDS011;68773;40.400;17.260;2023-06-10T10:49:07;1.73;;;1.23;;
52946;SDS011;68773;40.400;17.260;2023-06-10T10:51:34;3.28;;;1.08;;
52946;SDS011;68773;40.400;17.260;2023-06-10T10:54:14;3.17;;;1.02;;
52946;SDS011;68773;40.400;17.260;2023-06-10T10:59:25;2.78;;;0.90;;
52946;SDS011;68773;40.400;17.260;2023-06-10T11:01:51;2.88;;;1.20;;
52946;SDS011;68773;40.400;17.260;2023-06-10T11:04:17;8.57;;;1.63;;
52946;SDS011;68773;40.400;17.260;2023-06-10T11:06:56;1.75;;;1.10;;
52946;SDS011;68773;40.400;17.260;2023-06-10T11:09:32;2.58;;;1.50;;
52946;SDS011;68773;40.400;17.260;2023-06-10T11:11:58;8.20;;;1.75;;
52946;SDS011;68773;40.400;17.260;2023-06-10T11:14:28;1.77;;;1.30;;
52946;SDS011;68773;40.400;17.260;2023-06-10T11:16:56;3.13;;;1.42;;
52946;SDS011;68773;40.400;17.260;2023-06-10T11:19:35;3.83;;;1.48;;
52946;SDS011;68773;40.400;17.260;2023-06-10T11:22:02;3.33;;;1.80;;
52946;SDS011;68773;40.400;17.260;2023-06-10T11:24:29;4.43;;;1.90;;
52946;SDS011;68773;40.400;17.260;2023-06-10T11:27:14;5.18;;;1.40;;
52946;SDS011;68773;40.400;17.260;2023-06-10T11:29:54;3.78;;;1.58;;
52946;SDS011;68773;40.400;17.260;2023-06-10T11:32:21;3.42;;;2.10;;
52946;SDS011;68773;40.400;17.260;2023-06-10T11:34:53;3.65;;;1.98;;
52946;SDS011;68773;40.400;17.260;2023-06-10T11:37:20;4.45;;;1.77;;
52946;SDS011;68773;40.400;17.260;2023-06-10T11:39:47;2.95;;;1.90;;
52946;SDS011;68773;40.400;17.260;2023-06-10T11:42:13;3.67;;;1.60;;
52946;SDS011;68773;40.400;17.260;2023-06-10T11:44:47;2.78;;;1.88;;
52946;SDS011;68773;40.400;17.260;2023-06-10T11:47:13;2.67;;;1.80;;
52946;SDS011;68773;40.400;17.260;2023-06-10T11:49:39;2.38;;;1.60;;
52946;SDS011;68773;40.400;17.260;2023-06-10T11:52:05;4.22;;;1.90;;
52946;SDS011;68773;40.400;17.260;2023-06-10T11:54:31;2.45;;;1.83;;
52946;SDS011;68773;40.400;17.260;2023-06-10T11:56:58;3.25;;;1.90;;
52946;SDS011;68773;40.400;17.260;2023-06-10T11:59:28;3.42;;;2.17;;
52946;SDS011;68773;40.400;17.260;2023-06-10T12:01:54;4.65;;;2.60;;
52946;SDS011;68773;40.400;17.260;2023-06-10T12:04:20;4.63;;;2.63;;
52946;SDS011;68773;40.400;17.260;2023-06-10T12:09:23;5.00;;;2.45;;
52946;SDS011;68773;40.400;17.260;2023-06-10T12:11:51;3.63;;;2.28;;
52946;SDS011;68773;40.400;17.260;2023-06-10T12:14:49;4.40;;;2.40;;
52946;SDS011;68773;40.400;17.260;2023-06-10T12:17:03;4.30;;;2.38;;
52946;SDS011;68773;40.400;17.260;2023-06-10T12:19:29;4.72;;;2.03;;
52946;SDS011;68773;40.400;17.260;2023-06-10T12:21:56;5.75;;;2.35;;
52946;SDS011;68773;40.400;17.260;2023-06-10T12:24:22;2.72;;;2.22;;
52946;SDS011;68773;40.400;17.260;2023-06-10T12:26:48;4.70;;;2.13;;
52946;SDS011;68773;40.400;17.260;2023-06-10T12:34:18;4.82;;;1.90;;
52946;SDS011;68773;40.400;17.260;2023-06-10T12:36:48;2.88;;;2.05;;
52946;SDS011;68773;40.400;17.260;2023-06-10T12:39:14;7.45;;;2.10;;
52946;SDS011;68773;40.400;17.260;2023-06-10T12:41:46;3.25;;;2.20;;
52946;SDS011;68773;40.400;17.260;2023-06-10T12:44:13;2.40;;;1.92;;
52946;SDS011;68773;40.400;17.260;2023-06-10T12:46:39;3.85;;;1.77;;
52946;SDS011;68773;40.400;17.260;2023-06-10T12:49:05;2.50;;;1.90;;
52946;SDS011;68773;40.400;17.260;2023-06-10T12:51:31;3.95;;;2.58;;
52946;SDS011;68773;40.400;17.260;2023-06-10T12:53:59;3.60;;;2.00;;
52946;SDS011;68773;40.400;17.260;2023-06-10T12:56:25;7.80;;;1.83;;
52946;SDS011;68773;40.400;17.260;2023-06-10T12:58:51;3.42;;;2.05;;
52946;SDS011;68773;40.400;17.260;2023-06-10T13:01:17;2.67;;;1.63;;
52946;SDS011;68773;40.400;17.260;2023-06-10T13:03:43;4.38;;;1.77;;
52946;SDS011;68773;40.400;17.260;2023-06-10T13:06:09;3.38;;;1.55;;
52946;SDS011;68773;40.400;17.260;2023-06-10T13:08:37;5.40;;;1.50;;
52946;SDS011;68773;40.400;17.260;2023-06-10T13:11:03;3.15;;;1.60;;
52946;SDS011;68773;40.400;17.260;2023-06-10T13:13:29;2.22;;;1.67;;
52946;SDS011;68773;40.400;17.260;2023-06-10T13:15:55;3.28;;;1.77;;
52946;SDS011;68773;40.400;17.260;2023-06-10T13:18:21;3.50;;;1.33;;
52946;SDS011;68773;40.400;17.260;2023-06-10T13:20:47;3.28;;;1.50;;
52946;SDS011;68773;40.400;17.260;2023-06-10T13:23:13;3.03;;;1.42;;
52946;SDS011;68773;40.400;17.260;2023-06-10T13:25:40;2.60;;;1.30;;
52946;SDS011;68773;40.400;17.260;2023-06-10T13:28:09;1.73;;;1.48;;
52946;SDS011;68773;40.400;17.260;2023-06-10T13:30:36;5.88;;;2.00;;
52946;SDS011;68773;40.400;17.260;2023-06-10T13:33:02;2.95;;;1.60;;
52946;SDS011;68773;40.400;17.260;2023-06-10T13:35:28;3.53;;;1.38;;
52946;SDS011;68773;40.400;17.260;2023-06-10T13:37:54;1.67;;;1.30;;
52946;SDS011;68773;40.400;17.260;2023-06-10T13:40:21;3.00;;;1.38;;
52946;SDS011;68773;40.400;17.260;2023-06-10T13:42:47;2.92;;;1.05;;
52946;SDS011;68773;40.400;17.260;2023-06-10T13:45:15;2.58;;;1.10;;
52946;SDS011;68773;40.400;17.260;2023-06-10T13:47:42;2.97;;;1.30;;
52946;SDS011;68773;40.400;17.260;2023-06-10T13:50:08;2.10;;;1.45;;
52946;SDS011;68773;40.400;17.260;2023-06-10T13:52:34;3.22;;;1.25;;
52946;SDS011;68773;40.400;17.260;2023-06-10T13:55:00;2.30;;;1.17;;
52946;SDS011;68773;40.400;17.260;2023-06-10T13:57:26;2.40;;;1.13;;
52946;SDS011;68773;40.400;17.260;2023-06-10T13:59:52;3.13;;;1.20;;
52946;SDS011;68773;40.400;17.260;2023-06-10T14:02:20;2.97;;;1.25;;
52946;SDS011;68773;40.400;17.260;2023-06-10T14:04:47;2.00;;;1.10;;
52946;SDS011;68773;40.400;17.260;2023-06-10T14:07:13;2.75;;;1.10;;
52946;SDS011;68773;40.400;17.260;2023-06-10T14:09:39;1.95;;;1.02;;
52946;SDS011;68773;40.400;17.260;2023-06-10T14:12:05;2.83;;;1.10;;
52946;SDS011;68773;40.400;17.260;2023-06-10T14:14:31;3.85;;;0.90;;
52946;SDS011;68773;40.400;17.260;2023-06-10T14:16:58;3.13;;;1.30;;
52946;SDS011;68773;40.400;17.260;2023-06-10T14:19:24;4.80;;;1.27;;
52946;SDS011;68773;40.400;17.260;2023-06-10T14:21:50;2.53;;;1.45;;
52946;SDS011;68773;40.400;17.260;2023-06-10T14:24:18;2.10;;;0.88;;
52946;SDS011;68773;40.400;17.260;2023-06-10T14:26:44;2.42;;;1.10;;
52946;SDS011;68773;40.400;17.260;2023-06-10T14:29:10;1.67;;;0.90;;
52946;SDS011;68773;40.400;17.260;2023-06-10T14:31:39;3.17;;;1.10;;
52946;SDS011;68773;40.400;17.260;2023-06-10T14:34:05;2.88;;;1.17;;
52946;SDS011;68773;40.400;17.260;2023-06-10T14:36:33;1.92;;;1.08;;
52946;SDS011;68773;40.400;17.260;2023-06-10T14:38:59;2.72;;;1.38;;
52946;SDS011;68773;40.400;17.260;2023-06-10T14:41:25;2.47;;;1.30;;
52946;SDS011;68773;40.400;17.260;2023-06-10T14:43:51;2.22;;;1.42;;
52946;SDS011;68773;40.400;17.260;2023-06-10T14:46:17;3.92;;;1.75;;
52946;SDS011;68773;40.400;17.260;2023-06-10T14:48:46;2.65;;;1.40;;